sensor_id;sensor_type;location;lat;lon;timestamp;temperature;humidity
19580;DHT22;9936;51.040;13.918;2023-08-20T00:03:15;27.60;92.30
19580;DHT22;9936;51.040;13.918;2023-08-20T00:07:01;27.60;92.20
19580;DHT22;9936;51.040;13.918;2023-08-20T00:10:47;27.50;92.70
19580;DHT22;9936;51.040;13.918;2023-08-20T00:18:39;27.40;92.40
19580;DHT22;9936;51.040;13.918;2023-08-20T00:22:25;27.40;92.60
19580;DHT22;9936;51.040;13.918;2023-08-20T00:26:11;27.40;92.60
19580;DHT22;9936;51.040;13.918;2023-08-20T00:29:57;27.30;92.60
19580;DHT22;9936;51.040;13.918;2023-08-20T00:33:43;27.30;92.70
19580;DHT22;9936;51.040;13.918;2023-08-20T00:37:29;27.30;92.60
19580;DHT22;9936;51.040;13.918;2023-08-20T00:41:14;27.30;92.70
19580;DHT22;9936;51.040;13.918;2023-08-20T00:45:00;27.20;92.70
19580;DHT22;9936;51.040;13.918;2023-08-20T00:48:46;27.20;92.90
19580;DHT22;9936;51.040;13.918;2023-08-20T00:52:31;27.10;93.00
19580;DHT22;9936;51.040;13.918;2023-08-20T00:56:17;27.10;93.10
19580;DHT22;9936;51.040;13.918;2023-08-20T01:00:04;27.10;93.10
19580;DHT22;9936;51.040;13.918;2023-08-20T01:03:53;27.00;93.20
19580;DHT22;9936;51.040;13.918;2023-08-20T01:12:00;27.00;93.30
19580;DHT22;9936;51.040;13.918;2023-08-20T01:15:47;27.00;93.40
19580;DHT22;9936;51.040;13.918;2023-08-20T01:19:32;27.00;93.50
19580;DHT22;9936;51.040;13.918;2023-08-20T01:24:05;26.90;93.60
19580;DHT22;9936;51.040;13.918;2023-08-20T01:31:45;26.80;93.70
19580;DHT22;9936;51.040;13.918;2023-08-20T01:35:31;26.80;93.80
19580;DHT22;9936;51.040;13.918;2023-08-20T01:39:17;26.80;93.80
19580;DHT22;9936;51.040;13.918;2023-08-20T01:43:03;26.80;94.30
19580;DHT22;9936;51.040;13.918;2023-08-20T01:46:49;26.70;93.90
19580;DHT22;9936;51.040;13.918;2023-08-20T01:50:35;26.70;94.00
19580;DHT22;9936;51.040;13.918;2023-08-20T01:54:20;26.70;94.10
19580;DHT22;9936;51.040;13.918;2023-08-20T01:58:06;26.70;94.20
19580;DHT22;9936;51.040;13.918;2023-08-20T02:01:52;26.70;94.30
19580;DHT22;9936;51.040;13.918;2023-08-20T02:05:37;26.60;94.30
19580;DHT22;9936;51.040;13.918;2023-08-20T02:09:23;26.60;94.50
19580;DHT22;9936;51.040;13.918;2023-08-20T02:13:09;26.60;94.60
19580;DHT22;9936;51.040;13.918;2023-08-20T02:16:55;26.50;94.60
19580;DHT22;9936;51.040;13.918;2023-08-20T02:20:43;26.50;94.70
19580;DHT22;9936;51.040;13.918;2023-08-20T02:24:28;26.50;94.80
19580;DHT22;9936;51.040;13.918;2023-08-20T02:28:14;26.40;94.90
19580;DHT22;9936;51.040;13.918;2023-08-20T02:32:00;26.40;95.00
19580;DHT22;9936;51.040;13.918;2023-08-20T02:35:46;26.40;95.10
19580;DHT22;9936;51.040;13.918;2023-08-20T02:39:32;26.40;95.20
19580;DHT22;9936;51.040;13.918;2023-08-20T02:43:17;26.30;95.30
19580;DHT22;9936;51.040;13.918;2023-08-20T02:47:03;26.30;95.30
19580;DHT22;9936;51.040;13.918;2023-08-20T02:50:48;26.30;95.40
19580;DHT22;9936;51.040;13.918;2023-08-20T02:54:34;26.30;95.50
19580;DHT22;9936;51.040;13.918;2023-08-20T02:58:20;26.20;95.50
19580;DHT22;9936;51.040;13.918;2023-08-20T03:02:05;26.20;95.60
19580;DHT22;9936;51.040;13.918;2023-08-20T03:05:51;26.20;95.70
19580;DHT22;9936;51.040;13.918;2023-08-20T03:09:37;26.20;95.80
19580;DHT22;9936;51.040;13.918;2023-08-20T03:13:22;26.10;95.90
19580;DHT22;9936;51.040;13.918;2023-08-20T03:17:08;26.10;95.90
19580;DHT22;9936;51.040;13.918;2023-08-20T03:20:57;26.10;96.00
19580;DHT22;9936;51.040;13.918;2023-08-20T03:24:42;26.00;96.00
19580;DHT22;9936;51.040;13.918;2023-08-20T03:28:28;26.00;96.10
19580;DHT22;9936;51.040;13.918;2023-08-20T03:32:13;26.00;96.20
19580;DHT22;9936;51.040;13.918;2023-08-20T03:35:59;26.00;96.20
19580;DHT22;9936;51.040;13.918;2023-08-20T03:39:44;25.90;96.20
19580;DHT22;9936;51.040;13.918;2023-08-20T03:43:30;25.80;96.30
19580;DHT22;9936;51.040;13.918;2023-08-20T03:47:16;25.70;96.20
19580;DHT22;9936;51.040;13.918;2023-08-20T03:51:05;25.60;96.10
19580;DHT22;9936;51.040;13.918;2023-08-20T03:54:51;25.50;96.50
19580;DHT22;9936;51.040;13.918;2023-08-20T03:58:36;25.50;96.80
19580;DHT22;9936;51.040;13.918;2023-08-20T04:02:23;25.50;96.80
19580;DHT22;9936;51.040;13.918;2023-08-20T04:06:09;25.50;96.90
19580;DHT22;9936;51.040;13.918;2023-08-20T04:09:54;25.40;97.20
19580;DHT22;9936;51.040;13.918;2023-08-20T04:13:40;25.30;97.50
19580;DHT22;9936;51.040;13.918;2023-08-20T04:17:28;25.30;97.60
19580;DHT22;9936;51.040;13.918;2023-08-20T04:21:14;25.20;97.90
19580;DHT22;9936;51.040;13.918;2023-08-20T04:24:59;25.10;98.10
19580;DHT22;9936;51.040;13.918;2023-08-20T04:28:45;25.00;98.50
19580;DHT22;9936;51.040;13.918;2023-08-20T04:32:30;25.00;98.90
19580;DHT22;9936;51.040;13.918;2023-08-20T04:36:16;25.00;99.10
19580;DHT22;9936;51.040;13.918;2023-08-20T04:40:02;24.80;99.40
19580;DHT22;9936;51.040;13.918;2023-08-20T04:43:51;25.00;99.50
19580;DHT22;9936;51.040;13.918;2023-08-20T04:47:37;24.90;99.90
19580;DHT22;9936;51.040;13.918;2023-08-20T04:51:23;24.80;99.90
19580;DHT22;9936;51.040;13.918;2023-08-20T04:55:08;24.80;99.90
19580;DHT22;9936;51.040;13.918;2023-08-20T04:58:54;24.70;99.90
19580;DHT22;9936;51.040;13.918;2023-08-20T05:02:40;24.70;99.90
19580;DHT22;9936;51.040;13.918;2023-08-20T05:06:25;24.60;99.90
19580;DHT22;9936;51.040;13.918;2023-08-20T05:10:11;24.60;99.90
19580;DHT22;9936;51.040;13.918;2023-08-20T05:13:57;24.70;99.90
19580;DHT22;9936;51.040;13.918;2023-08-20T05:17:42;24.70;99.90
19580;DHT22;9936;51.040;13.918;2023-08-20T05:21:28;24.70;99.90
19580;DHT22;9936;51.040;13.918;2023-08-20T05:25:13;24.80;99.90
19580;DHT22;9936;51.040;13.918;2023-08-20T05:29:03;24.80;99.90
19580;DHT22;9936;51.040;13.918;2023-08-20T05:32:55;24.90;99.90
19580;DHT22;9936;51.040;13.918;2023-08-20T05:36:40;25.00;99.90
19580;DHT22;9936;51.040;13.918;2023-08-20T05:40:26;25.00;99.90
19580;DHT22;9936;51.040;13.918;2023-08-20T05:44:12;25.00;99.90
19580;DHT22;9936;51.040;13.918;2023-08-20T05:47:57;25.00;99.90
19580;DHT22;9936;51.040;13.918;2023-08-20T05:51:43;25.00;99.90
19580;DHT22;9936;51.040;13.918;2023-08-20T05:55:29;25.00;99.90
19580;DHT22;9936;51.040;13.918;2023-08-20T05:59:14;25.00;99.90
19580;DHT22;9936;51.040;13.918;2023-08-20T06:03:00;24.80;99.90
19580;DHT22;9936;51.040;13.918;2023-08-20T06:06:46;24.80;99.90
19580;DHT22;9936;51.040;13.918;2023-08-20T06:10:31;24.70;99.90
19580;DHT22;9936;51.040;13.918;2023-08-20T06:14:24;24.80;99.90
19580;DHT22;9936;51.040;13.918;2023-08-20T06:18:10;24.80;99.90
19580;DHT22;9936;51.040;13.918;2023-08-20T06:21:55;24.90;99.90
19580;DHT22;9936;51.040;13.918;2023-08-20T06:25:41;24.90;99.90
19580;DHT22;9936;51.040;13.918;2023-08-20T06:29:26;24.90;99.90
19580;DHT22;9936;51.040;13.918;2023-08-20T06:33:12;24.80;99.90
19580;DHT22;9936;51.040;13.918;2023-08-20T06:36:58;24.70;99.90
19580;DHT22;9936;51.040;13.918;2023-08-20T06:40:43;24.80;99.90
19580;DHT22;9936;51.040;13.918;2023-08-20T06:44:34;24.80;99.90
19580;DHT22;9936;51.040;13.918;2023-08-20T06:48:20;24.90;99.90
19580;DHT22;9936;51.040;13.918;2023-08-20T06:52:10;24.80;99.90
19580;DHT22;9936;51.040;13.918;2023-08-20T06:55:56;24.80;99.90
19580;DHT22;9936;51.040;13.918;2023-08-20T06:59:41;24.90;99.90
19580;DHT22;9936;51.040;13.918;2023-08-20T07:03:28;24.80;99.90
19580;DHT22;9936;51.040;13.918;2023-08-20T07:07:14;24.90;99.90
19580;DHT22;9936;51.040;13.918;2023-08-20T07:11:00;24.90;99.90
19580;DHT22;9936;51.040;13.918;2023-08-20T07:14:46;24.90;99.90
19580;DHT22;9936;51.040;13.918;2023-08-20T07:18:37;25.00;99.90
19580;DHT22;9936;51.040;13.918;2023-08-20T07:22:23;25.00;99.90
19580;DHT22;9936;51.040;13.918;2023-08-20T07:26:10;25.10;99.90
19580;DHT22;9936;51.040;13.918;2023-08-20T07:29:57;25.10;99.90
19580;DHT22;9936;51.040;13.918;2023-08-20T07:33:46;25.00;99.90
19580;DHT22;9936;51.040;13.918;2023-08-20T07:37:33;25.10;99.90
19580;DHT22;9936;51.040;13.918;2023-08-20T07:41:19;25.10;99.90
19580;DHT22;9936;51.040;13.918;2023-08-20T07:45:08;25.10;99.90
19580;DHT22;9936;51.040;13.918;2023-08-20T07:48:54;25.00;99.90
19580;DHT22;9936;51.040;13.918;2023-08-20T07:52:39;25.00;99.90
19580;DHT22;9936;51.040;13.918;2023-08-20T07:56:26;25.30;99.90
19580;DHT22;9936;51.040;13.918;2023-08-20T08:00:12;25.50;99.90
19580;DHT22;9936;51.040;13.918;2023-08-20T08:03:58;25.50;99.90
19580;DHT22;9936;51.040;13.918;2023-08-20T08:07:44;25.70;99.90
19580;DHT22;9936;51.040;13.918;2023-08-20T08:11:45;25.70;99.90
19580;DHT22;9936;51.040;13.918;2023-08-20T08:15:30;25.70;99.90
19580;DHT22;9936;51.040;13.918;2023-08-20T08:19:17;25.90;99.90
19580;DHT22;9936;51.040;13.918;2023-08-20T08:23:03;25.90;99.90
19580;DHT22;9936;51.040;13.918;2023-08-20T08:26:49;25.90;99.90
19580;DHT22;9936;51.040;13.918;2023-08-20T08:30:34;26.00;99.90
19580;DHT22;9936;51.040;13.918;2023-08-20T08:34:20;26.00;99.90
19580;DHT22;9936;51.040;13.918;2023-08-20T08:38:06;26.00;99.90
19580;DHT22;9936;51.040;13.918;2023-08-20T08:41:56;26.20;99.90
19580;DHT22;9936;51.040;13.918;2023-08-20T08:45:46;26.30;99.90
19580;DHT22;9936;51.040;13.918;2023-08-20T08:49:35;26.50;99.90
19580;DHT22;9936;51.040;13.918;2023-08-20T08:57:45;26.70;99.90
19580;DHT22;9936;51.040;13.918;2023-08-20T09:01:31;26.70;99.90
19580;DHT22;9936;51.040;13.918;2023-08-20T09:05:17;26.60;99.90
19580;DHT22;9936;51.040;13.918;2023-08-20T09:09:06;26.60;99.90
19580;DHT22;9936;51.040;13.918;2023-08-20T09:12:54;26.60;99.90
19580;DHT22;9936;51.040;13.918;2023-08-20T09:16:41;26.60;99.90
19580;DHT22;9936;51.040;13.918;2023-08-20T09:20:37;26.70;99.90
19580;DHT22;9936;51.040;13.918;2023-08-20T09:24:33;26.80;99.90
19580;DHT22;9936;51.040;13.918;2023-08-20T09:28:22;26.80;99.90
19580;DHT22;9936;51.040;13.918;2023-08-20T09:32:08;27.00;99.90
19580;DHT22;9936;51.040;13.918;2023-08-20T09:35:53;27.10;99.90
19580;DHT22;9936;51.040;13.918;2023-08-20T09:39:40;27.30;99.90
19580;DHT22;9936;51.040;13.918;2023-08-20T09:43:28;27.50;99.90
19580;DHT22;9936;51.040;13.918;2023-08-20T09:47:16;27.30;99.90
19580;DHT22;9936;51.040;13.918;2023-08-20T09:51:05;27.20;99.90
19580;DHT22;9936;51.040;13.918;2023-08-20T09:55:09;27.30;99.90
19580;DHT22;9936;51.040;13.918;2023-08-20T09:59:00;27.40;99.90
19580;DHT22;9936;51.040;13.918;2023-08-20T10:02:46;27.50;99.90
19580;DHT22;9936;51.040;13.918;2023-08-20T10:06:34;27.60;99.90
19580;DHT22;9936;51.040;13.918;2023-08-20T10:10:21;27.60;99.90
19580;DHT22;9936;51.040;13.918;2023-08-20T10:14:07;27.70;99.90
19580;DHT22;9936;51.040;13.918;2023-08-20T10:17:53;27.70;99.90
19580;DHT22;9936;51.040;13.918;2023-08-20T10:21:45;27.70;99.90
19580;DHT22;9936;51.040;13.918;2023-08-20T10:25:31;27.80;99.90
19580;DHT22;9936;51.040;13.918;2023-08-20T10:29:39;27.80;99.90
19580;DHT22;9936;51.040;13.918;2023-08-20T10:33:26;28.00;99.90
19580;DHT22;9936;51.040;13.918;2023-08-20T10:37:15;28.10;99.90
19580;DHT22;9936;51.040;13.918;2023-08-20T10:41:00;28.10;99.90
19580;DHT22;9936;51.040;13.918;2023-08-20T10:48:55;28.20;99.90
19580;DHT22;9936;51.040;13.918;2023-08-20T10:52:50;28.40;99.90
19580;DHT22;9936;51.040;13.918;2023-08-20T10:56:44;28.60;99.90
19580;DHT22;9936;51.040;13.918;2023-08-20T11:00:30;28.70;99.90
19580;DHT22;9936;51.040;13.918;2023-08-20T11:04:19;28.80;99.90
19580;DHT22;9936;51.040;13.918;2023-08-20T11:08:05;28.90;99.90
19580;DHT22;9936;51.040;13.918;2023-08-20T11:11:53;29.00;99.90
19580;DHT22;9936;51.040;13.918;2023-08-20T11:15:39;29.00;99.90
19580;DHT22;9936;51.040;13.918;2023-08-20T11:19:25;29.00;99.90
19580;DHT22;9936;51.040;13.918;2023-08-20T11:23:10;29.00;99.90
19580;DHT22;9936;51.040;13.918;2023-08-20T11:27:10;29.10;99.90
19580;DHT22;9936;51.040;13.918;2023-08-20T11:30:57;29.10;99.90
19580;DHT22;9936;51.040;13.918;2023-08-20T11:34:43;29.10;99.90
19580;DHT22;9936;51.040;13.918;2023-08-20T11:38:32;29.20;99.90
19580;DHT22;9936;51.040;13.918;2023-08-20T11:42:17;29.30;99.90
19580;DHT22;9936;51.040;13.918;2023-08-20T11:46:04;29.30;99.50
19580;DHT22;9936;51.040;13.918;2023-08-20T11:54:21;29.40;99.70
19580;DHT22;9936;51.040;13.918;2023-08-20T11:58:13;29.50;99.20
19580;DHT22;9936;51.040;13.918;2023-08-20T12:02:09;29.50;98.40
19580;DHT22;9936;51.040;13.918;2023-08-20T12:05:55;29.60;98.50
19580;DHT22;9936;51.040;13.918;2023-08-20T12:09:40;29.70;97.30
19580;DHT22;9936;51.040;13.918;2023-08-20T12:13:27;29.70;96.20
19580;DHT22;9936;51.040;13.918;2023-08-20T12:17:17;29.70;95.90
19580;DHT22;9936;51.040;13.918;2023-08-20T12:21:03;29.80;96.20
19580;DHT22;9936;51.040;13.918;2023-08-20T12:24:49;29.80;94.90
19580;DHT22;9936;51.040;13.918;2023-08-20T12:29:04;29.80;95.80
19580;DHT22;9936;51.040;13.918;2023-08-20T12:32:50;30.00;95.40
19580;DHT22;9936;51.040;13.918;2023-08-20T12:36:35;30.10;95.20
19580;DHT22;9936;51.040;13.918;2023-08-20T12:40:21;30.20;95.70
19580;DHT22;9936;51.040;13.918;2023-08-20T12:44:13;30.20;95.40
19580;DHT22;9936;51.040;13.918;2023-08-20T12:47:59;30.20;96.10
19580;DHT22;9936;51.040;13.918;2023-08-20T12:51:44;30.20;95.90
19580;DHT22;9936;51.040;13.918;2023-08-20T12:55:30;30.30;94.40
19580;DHT22;9936;51.040;13.918;2023-08-20T12:59:16;30.20;94.00
19580;DHT22;9936;51.040;13.918;2023-08-20T13:03:01;30.20;93.80
19580;DHT22;9936;51.040;13.918;2023-08-20T13:06:47;30.30;95.10
19580;DHT22;9936;51.040;13.918;2023-08-20T13:10:33;30.50;94.00
19580;DHT22;9936;51.040;13.918;2023-08-20T13:14:19;30.50;93.00
19580;DHT22;9936;51.040;13.918;2023-08-20T13:18:05;30.40;93.70
19580;DHT22;9936;51.040;13.918;2023-08-20T13:21:53;30.40;93.60
19580;DHT22;9936;51.040;13.918;2023-08-20T13:26:06;30.50;94.60
19580;DHT22;9936;51.040;13.918;2023-08-20T13:29:52;30.50;93.40
19580;DHT22;9936;51.040;13.918;2023-08-20T13:33:39;30.60;94.10
19580;DHT22;9936;51.040;13.918;2023-08-20T13:37:24;30.60;93.20
19580;DHT22;9936;51.040;13.918;2023-08-20T13:45:46;30.60;93.40
19580;DHT22;9936;51.040;13.918;2023-08-20T13:49:32;30.70;93.00
19580;DHT22;9936;51.040;13.918;2023-08-20T13:53:17;30.70;92.90
19580;DHT22;9936;51.040;13.918;2023-08-20T13:57:04;30.80;93.50
19580;DHT22;9936;51.040;13.918;2023-08-20T14:00:49;30.70;92.70
19580;DHT22;9936;51.040;13.918;2023-08-20T14:04:35;30.80;93.10
19580;DHT22;9936;51.040;13.918;2023-08-20T14:08:21;30.90;91.10
19580;DHT22;9936;51.040;13.918;2023-08-20T14:12:07;30.90;92.20
19580;DHT22;9936;51.040;13.918;2023-08-20T14:15:53;31.00;92.80
19580;DHT22;9936;51.040;13.918;2023-08-20T14:19:38;31.10;90.50
19580;DHT22;9936;51.040;13.918;2023-08-20T14:23:24;31.10;90.90
19580;DHT22;9936;51.040;13.918;2023-08-20T14:27:11;31.20;90.40
19580;DHT22;9936;51.040;13.918;2023-08-20T14:31:02;31.20;90.20
19580;DHT22;9936;51.040;13.918;2023-08-20T14:34:48;31.20;90.30
19580;DHT22;9936;51.040;13.918;2023-08-20T14:38:34;31.10;89.10
19580;DHT22;9936;51.040;13.918;2023-08-20T14:42:19;31.20;90.50
19580;DHT22;9936;51.040;13.918;2023-08-20T14:46:05;31.20;90.20
19580;DHT22;9936;51.040;13.918;2023-08-20T14:49:51;31.30;90.20
19580;DHT22;9936;51.040;13.918;2023-08-20T14:53:37;31.30;89.20
19580;DHT22;9936;51.040;13.918;2023-08-20T14:57:23;31.30;88.70
19580;DHT22;9936;51.040;13.918;2023-08-20T15:01:08;31.20;87.90
19580;DHT22;9936;51.040;13.918;2023-08-20T15:04:54;31.20;88.50
19580;DHT22;9936;51.040;13.918;2023-08-20T15:08:40;31.20;90.00
19580;DHT22;9936;51.040;13.918;2023-08-20T15:12:25;31.30;90.50
19580;DHT22;9936;51.040;13.918;2023-08-20T15:16:11;31.30;89.40
19580;DHT22;9936;51.040;13.918;2023-08-20T15:19:56;31.40;89.10
19580;DHT22;9936;51.040;13.918;2023-08-20T15:23:42;31.40;87.80
19580;DHT22;9936;51.040;13.918;2023-08-20T15:27:28;31.40;87.70
19580;DHT22;9936;51.040;13.918;2023-08-20T15:31:13;31.30;87.80
19580;DHT22;9936;51.040;13.918;2023-08-20T15:34:59;31.30;88.60
19580;DHT22;9936;51.040;13.918;2023-08-20T15:38:47;31.30;87.80
19580;DHT22;9936;51.040;13.918;2023-08-20T15:42:33;31.40;89.50
19580;DHT22;9936;51.040;13.918;2023-08-20T15:46:19;31.40;89.20
19580;DHT22;9936;51.040;13.918;2023-08-20T15:50:05;31.40;87.90
19580;DHT22;9936;51.040;13.918;2023-08-20T15:53:51;31.40;88.70
19580;DHT22;9936;51.040;13.918;2023-08-20T15:57:37;31.50;88.90
19580;DHT22;9936;51.040;13.918;2023-08-20T16:01:22;31.60;90.10
19580;DHT22;9936;51.040;13.918;2023-08-20T16:05:10;31.70;90.60
19580;DHT22;9936;51.040;13.918;2023-08-20T16:08:58;31.70;90.90
19580;DHT22;9936;51.040;13.918;2023-08-20T16:12:44;31.80;90.60
19580;DHT22;9936;51.040;13.918;2023-08-20T16:16:29;31.80;88.80
19580;DHT22;9936;51.040;13.918;2023-08-20T16:20:15;31.70;90.00
19580;DHT22;9936;51.040;13.918;2023-08-20T16:24:01;31.80;90.40
19580;DHT22;9936;51.040;13.918;2023-08-20T16:27:46;31.80;90.60
19580;DHT22;9936;51.040;13.918;2023-08-20T16:31:32;31.80;88.60
19580;DHT22;9936;51.040;13.918;2023-08-20T16:35:22;31.50;84.90
19580;DHT22;9936;51.040;13.918;2023-08-20T16:39:08;31.30;86.20
19580;DHT22;9936;51.040;13.918;2023-08-20T16:42:58;31.30;85.80
19580;DHT22;9936;51.040;13.918;2023-08-20T16:46:44;31.10;84.70
19580;DHT22;9936;51.040;13.918;2023-08-20T16:50:30;30.90;85.00
19580;DHT22;9936;51.040;13.918;2023-08-20T16:54:16;31.00;86.20
19580;DHT22;9936;51.040;13.918;2023-08-20T16:58:01;30.90;84.80
19580;DHT22;9936;51.040;13.918;2023-08-20T17:01:47;30.90;84.60
19580;DHT22;9936;51.040;13.918;2023-08-20T17:05:36;30.80;85.40
19580;DHT22;9936;51.040;13.918;2023-08-20T17:09:25;30.80;86.10
19580;DHT22;9936;51.040;13.918;2023-08-20T17:13:11;30.80;85.30
19580;DHT22;9936;51.040;13.918;2023-08-20T17:17:00;30.70;85.80
19580;DHT22;9936;51.040;13.918;2023-08-20T17:20:48;30.80;86.50
19580;DHT22;9936;51.040;13.918;2023-08-20T17:24:34;30.90;88.10
19580;DHT22;9936;51.040;13.918;2023-08-20T17:28:19;31.00;87.10
19580;DHT22;9936;51.040;13.918;2023-08-20T17:32:05;30.90;86.30
19580;DHT22;9936;51.040;13.918;2023-08-20T17:35:51;30.90;86.40
19580;DHT22;9936;51.040;13.918;2023-08-20T17:39:38;30.80;84.00
19580;DHT22;9936;51.040;13.918;2023-08-20T17:43:24;30.60;84.70
19580;DHT22;9936;51.040;13.918;2023-08-20T17:47:09;30.50;83.20
19580;DHT22;9936;51.040;13.918;2023-08-20T17:50:55;30.40;84.70
19580;DHT22;9936;51.040;13.918;2023-08-20T17:54:41;30.40;85.90
19580;DHT22;9936;51.040;13.918;2023-08-20T17:58:26;30.50;86.70
19580;DHT22;9936;51.040;13.918;2023-08-20T18:02:13;30.60;87.80
19580;DHT22;9936;51.040;13.918;2023-08-20T18:06:01;30.70;87.70
19580;DHT22;9936;51.040;13.918;2023-08-20T18:09:47;30.80;89.10
19580;DHT22;9936;51.040;13.918;2023-08-20T18:13:34;30.80;89.30
19580;DHT22;9936;51.040;13.918;2023-08-20T18:17:29;30.90;90.20
19580;DHT22;9936;51.040;13.918;2023-08-20T18:21:15;30.90;90.50
19580;DHT22;9936;51.040;13.918;2023-08-20T18:25:01;30.90;90.70
19580;DHT22;9936;51.040;13.918;2023-08-20T18:28:47;30.90;90.50
19580;DHT22;9936;51.040;13.918;2023-08-20T18:32:35;30.80;90.70
19580;DHT22;9936;51.040;13.918;2023-08-20T18:36:21;30.80;90.90
19580;DHT22;9936;51.040;13.918;2023-08-20T18:40:07;30.80;91.00
19580;DHT22;9936;51.040;13.918;2023-08-20T18:43:55;30.70;91.00
19580;DHT22;9936;51.040;13.918;2023-08-20T18:47:40;30.70;91.00
19580;DHT22;9936;51.040;13.918;2023-08-20T18:51:26;30.60;91.10
19580;DHT22;9936;51.040;13.918;2023-08-20T18:55:12;30.60;91.10
19580;DHT22;9936;51.040;13.918;2023-08-20T18:58:57;30.50;91.20
19580;DHT22;9936;51.040;13.918;2023-08-20T19:02:43;30.50;91.30
19580;DHT22;9936;51.040;13.918;2023-08-20T19:06:30;30.40;91.80
19580;DHT22;9936;51.040;13.918;2023-08-20T19:10:16;30.40;91.40
19580;DHT22;9936;51.040;13.918;2023-08-20T19:14:03;30.30;91.50
19580;DHT22;9936;51.040;13.918;2023-08-20T19:17:49;30.30;91.00
19580;DHT22;9936;51.040;13.918;2023-08-20T19:21:34;30.30;91.60
19580;DHT22;9936;51.040;13.918;2023-08-20T19:25:22;30.20;91.60
19580;DHT22;9936;51.040;13.918;2023-08-20T19:29:08;30.20;91.60
19580;DHT22;9936;51.040;13.918;2023-08-20T19:32:55;30.10;91.80
19580;DHT22;9936;51.040;13.918;2023-08-20T19:36:41;30.10;91.90
19580;DHT22;9936;51.040;13.918;2023-08-20T19:40:27;29.90;91.40
19580;DHT22;9936;51.040;13.918;2023-08-20T19:44:13;29.80;91.90
19580;DHT22;9936;51.040;13.918;2023-08-20T19:48:00;29.70;92.10
19580;DHT22;9936;51.040;13.918;2023-08-20T19:51:46;29.70;92.30
19580;DHT22;9936;51.040;13.918;2023-08-20T19:55:32;29.70;92.30
19580;DHT22;9936;51.040;13.918;2023-08-20T19:59:18;29.70;92.50
19580;DHT22;9936;51.040;13.918;2023-08-20T20:03:05;29.60;92.60
19580;DHT22;9936;51.040;13.918;2023-08-20T20:06:50;29.60;92.90
19580;DHT22;9936;51.040;13.918;2023-08-20T20:10:36;29.60;92.90
19580;DHT22;9936;51.040;13.918;2023-08-20T20:14:22;29.50;93.00
19580;DHT22;9936;51.040;13.918;2023-08-20T20:18:08;29.50;93.10
19580;DHT22;9936;51.040;13.918;2023-08-20T20:21:54;29.30;93.50
19580;DHT22;9936;51.040;13.918;2023-08-20T20:25:42;29.00;93.60
19580;DHT22;9936;51.040;13.918;2023-08-20T20:29:31;28.90;94.00
19580;DHT22;9936;51.040;13.918;2023-08-20T20:33:18;28.80;94.40
19580;DHT22;9936;51.040;13.918;2023-08-20T20:37:03;28.60;95.10
19580;DHT22;9936;51.040;13.918;2023-08-20T20:40:50;28.60;95.30
19580;DHT22;9936;51.040;13.918;2023-08-20T20:44:39;28.70;96.20
19580;DHT22;9936;51.040;13.918;2023-08-20T20:48:24;28.70;96.00
19580;DHT22;9936;51.040;13.918;2023-08-20T20:52:11;28.80;95.80
19580;DHT22;9936;51.040;13.918;2023-08-20T20:56:03;28.90;95.80
19580;DHT22;9936;51.040;13.918;2023-08-20T20:59:49;28.90;95.70
19580;DHT22;9936;51.040;13.918;2023-08-20T21:03:37;28.90;95.70
19580;DHT22;9936;51.040;13.918;2023-08-20T21:07:24;28.90;95.80
19580;DHT22;9936;51.040;13.918;2023-08-20T21:11:11;28.90;95.90
19580;DHT22;9936;51.040;13.918;2023-08-20T21:14:56;28.80;95.80
19580;DHT22;9936;51.040;13.918;2023-08-20T21:18:42;28.80;96.20
19580;DHT22;9936;51.040;13.918;2023-08-20T21:22:28;28.80;96.30
19580;DHT22;9936;51.040;13.918;2023-08-20T21:26:22;28.70;96.30
19580;DHT22;9936;51.040;13.918;2023-08-20T21:30:08;28.70;96.40
19580;DHT22;9936;51.040;13.918;2023-08-20T21:33:54;28.60;96.60
19580;DHT22;9936;51.040;13.918;2023-08-20T21:37:40;28.60;96.40
19580;DHT22;9936;51.040;13.918;2023-08-20T21:41:25;28.60;96.50
19580;DHT22;9936;51.040;13.918;2023-08-20T21:45:11;28.60;96.50
19580;DHT22;9936;51.040;13.918;2023-08-20T21:48:58;28.50;96.60
19580;DHT22;9936;51.040;13.918;2023-08-20T21:52:44;28.50;96.70
19580;DHT22;9936;51.040;13.918;2023-08-20T21:56:30;28.50;96.90
19580;DHT22;9936;51.040;13.918;2023-08-20T22:00:16;28.40;97.00
19580;DHT22;9936;51.040;13.918;2023-08-20T22:04:02;28.40;97.10
19580;DHT22;9936;51.040;13.918;2023-08-20T22:07:50;28.30;97.30
19580;DHT22;9936;51.040;13.918;2023-08-20T22:11:36;28.30;97.80
19580;DHT22;9936;51.040;13.918;2023-08-20T22:15:22;28.20;97.50
19580;DHT22;9936;51.040;13.918;2023-08-20T22:19:07;28.20;97.80
19580;DHT22;9936;51.040;13.918;2023-08-20T22:22:53;28.10;97.90
19580;DHT22;9936;51.040;13.918;2023-08-20T22:26:40;28.00;97.80
19580;DHT22;9936;51.040;13.918;2023-08-20T22:30:25;28.00;97.80
19580;DHT22;9936;51.040;13.918;2023-08-20T22:34:11;28.00;97.90
19580;DHT22;9936;51.040;13.918;2023-08-20T22:38:09;27.90;98.10
19580;DHT22;9936;51.040;13.918;2023-08-20T22:41:54;27.90;98.10
19580;DHT22;9936;51.040;13.918;2023-08-20T22:45:40;27.90;98.00
19580;DHT22;9936;51.040;13.918;2023-08-20T22:49:25;27.80;97.80
19580;DHT22;9936;51.040;13.918;2023-08-20T22:53:11;27.80;97.80
19580;DHT22;9936;51.040;13.918;2023-08-20T22:56:57;27.80;97.80
19580;DHT22;9936;51.040;13.918;2023-08-20T23:00:43;27.80;97.90
19580;DHT22;9936;51.040;13.918;2023-08-20T23:04:28;27.70;97.90
19580;DHT22;9936;51.040;13.918;2023-08-20T23:08:14;27.70;98.00
19580;DHT22;9936;51.040;13.918;2023-08-20T23:12:04;27.70;98.00
19580;DHT22;9936;51.040;13.918;2023-08-20T23:15:49;27.60;98.10
19580;DHT22;9936;51.040;13.918;2023-08-20T23:19:35;27.60;98.10
19580;DHT22;9936;51.040;13.918;2023-08-20T23:23:21;27.60;98.10
19580;DHT22;9936;51.040;13.918;2023-08-20T23:27:07;27.50;98.20
19580;DHT22;9936;51.040;13.918;2023-08-20T23:30:52;27.50;98.30
19580;DHT22;9936;51.040;13.918;2023-08-20T23:34:38;27.40;98.40
19580;DHT22;9936;51.040;13.918;2023-08-20T23:38:24;27.40;98.40
19580;DHT22;9936;51.040;13.918;2023-08-20T23:42:09;27.40;98.90
19580;DHT22;9936;51.040;13.918;2023-08-20T23:45:55;27.30;98.60
19580;DHT22;9936;51.040;13.918;2023-08-20T23:49:41;27.30;98.70
19580;DHT22;9936;51.040;13.918;2023-08-20T23:53:26;27.20;98.70
19580;DHT22;9936;51.040;13.918;2023-08-20T23:57:13;27.20;98.70
